sensor_id;sensor_type;location;lat;lon;timestamp;P1;durP1;ratioP1;P2;durP2;ratioP2
3280;SDS011;1652;51.318;6.202;2023-02-28T00:01:12;6.53;;;4.30;;
3280;SDS011;1652;51.318;6.202;2023-02-28T00:03:40;4.43;;;4.13;;
3280;SDS011;1652;51.318;6.202;2023-02-28T00:06:07;3.77;;;3.57;;
3280;SDS011;1652;51.318;6.202;2023-02-28T00:08:36;4.87;;;4.37;;
3280;SDS011;1652;51.318;6.202;2023-02-28T00:11:03;6.10;;;4.10;;
3280;SDS011;1652;51.318;6.202;2023-02-28T00:13:35;10.33;;;5.37;;
3280;SDS011;1652;51.318;6.202;2023-02-28T00:16:05;8.23;;;4.53;;
3280;SDS011;1652;51.318;6.202;2023-02-28T00:18:33;5.93;;;4.70;;
3280;SDS011;1652;51.318;6.202;2023-02-28T00:21:00;4.87;;;3.97;;
3280;SDS011;1652;51.318;6.202;2023-02-28T00:23:27;5.23;;;4.73;;
3280;SDS011;1652;51.318;6.202;2023-02-28T00:25:54;4.17;;;3.97;;
3280;SDS011;1652;51.318;6.202;2023-02-28T00:28:23;5.70;;;5.10;;
3280;SDS011;1652;51.318;6.202;2023-02-28T00:30:50;4.50;;;4.30;;
3280;SDS011;1652;51.318;6.202;2023-02-28T00:33:17;4.40;;;4.10;;
3280;SDS011;1652;51.318;6.202;2023-02-28T00:35:43;5.53;;;5.03;;
3280;SDS011;1652;51.318;6.202;2023-02-28T00:38:13;7.67;;;4.63;;
3280;SDS011;1652;51.318;6.202;2023-02-28T00:40:40;8.27;;;4.30;;
3280;SDS011;1652;51.318;6.202;2023-02-28T00:43:07;5.60;;;4.30;;
3280;SDS011;1652;51.318;6.202;2023-02-28T00:45:34;4.53;;;4.23;;
3280;SDS011;1652;51.318;6.202;2023-02-28T00:48:01;6.63;;;4.80;;
3280;SDS011;1652;51.318;6.202;2023-02-28T00:50:28;3.87;;;3.57;;
3280;SDS011;1652;51.318;6.202;2023-02-28T00:52:54;5.07;;;4.23;;
3280;SDS011;1652;51.318;6.202;2023-02-28T00:55:21;5.17;;;4.00;;
3280;SDS011;1652;51.318;6.202;2023-02-28T00:57:48;4.30;;;4.10;;
3280;SDS011;1652;51.318;6.202;2023-02-28T01:00:15;3.87;;;3.63;;
3280;SDS011;1652;51.318;6.202;2023-02-28T01:02:42;4.23;;;3.93;;
3280;SDS011;1652;51.318;6.202;2023-02-28T01:05:08;4.43;;;4.17;;
3280;SDS011;1652;51.318;6.202;2023-02-28T01:07:36;7.40;;;4.43;;
3280;SDS011;1652;51.318;6.202;2023-02-28T01:10:03;4.63;;;4.23;;
3280;SDS011;1652;51.318;6.202;2023-02-28T01:12:30;4.77;;;3.60;;
3280;SDS011;1652;51.318;6.202;2023-02-28T01:14:57;4.40;;;4.10;;
3280;SDS011;1652;51.318;6.202;2023-02-28T01:17:24;12.10;;;5.03;;
3280;SDS011;1652;51.318;6.202;2023-02-28T01:19:52;7.10;;;4.70;;
3280;SDS011;1652;51.318;6.202;2023-02-28T01:22:20;4.80;;;4.40;;
3280;SDS011;1652;51.318;6.202;2023-02-28T01:24:47;4.90;;;4.43;;
3280;SDS011;1652;51.318;6.202;2023-02-28T01:29:45;5.10;;;4.63;;
3280;SDS011;1652;51.318;6.202;2023-02-28T01:32:12;10.03;;;4.67;;
3280;SDS011;1652;51.318;6.202;2023-02-28T01:34:39;5.10;;;4.60;;
3280;SDS011;1652;51.318;6.202;2023-02-28T01:37:06;4.70;;;4.30;;
3280;SDS011;1652;51.318;6.202;2023-02-28T01:39:33;4.90;;;4.50;;
3280;SDS011;1652;51.318;6.202;2023-02-28T01:41:59;4.70;;;4.30;;
3280;SDS011;1652;51.318;6.202;2023-02-28T01:47:35;8.80;;;4.47;;
3280;SDS011;1652;51.318;6.202;2023-02-28T01:50:07;4.80;;;4.30;;
3280;SDS011;1652;51.318;6.202;2023-02-28T01:52:38;5.90;;;4.40;;
3280;SDS011;1652;51.318;6.202;2023-02-28T01:55:06;8.53;;;5.67;;
3280;SDS011;1652;51.318;6.202;2023-02-28T01:57:34;6.50;;;4.70;;
3280;SDS011;1652;51.318;6.202;2023-02-28T02:00:11;7.93;;;5.17;;
3280;SDS011;1652;51.318;6.202;2023-02-28T02:02:45;9.40;;;5.73;;
3280;SDS011;1652;51.318;6.202;2023-02-28T02:05:16;7.70;;;6.30;;
3280;SDS011;1652;51.318;6.202;2023-02-28T02:07:48;8.47;;;6.73;;
3280;SDS011;1652;51.318;6.202;2023-02-28T02:10:19;6.50;;;5.90;;
3280;SDS011;1652;51.318;6.202;2023-02-28T02:12:54;7.90;;;5.70;;
3280;SDS011;1652;51.318;6.202;2023-02-28T02:18:42;7.70;;;5.10;;
3280;SDS011;1652;51.318;6.202;2023-02-28T02:29:48;5.30;;;4.80;;
3280;SDS011;1652;51.318;6.202;2023-02-28T02:37:50;3.83;;;3.63;;
3280;SDS011;1652;51.318;6.202;2023-02-28T02:46:12;7.77;;;4.07;;
3280;SDS011;1652;51.318;6.202;2023-02-28T02:48:45;4.67;;;4.07;;
3280;SDS011;1652;51.318;6.202;2023-02-28T02:51:16;3.60;;;3.30;;
3280;SDS011;1652;51.318;6.202;2023-02-28T02:56:29;4.47;;;4.17;;
3280;SDS011;1652;51.318;6.202;2023-02-28T02:59:01;4.03;;;3.70;;
3280;SDS011;1652;51.318;6.202;2023-02-28T03:01:30;3.90;;;3.60;;
3280;SDS011;1652;51.318;6.202;2023-02-28T03:04:02;6.20;;;4.40;;
3280;SDS011;1652;51.318;6.202;2023-02-28T03:06:33;3.20;;;3.00;;
3280;SDS011;1652;51.318;6.202;2023-02-28T03:09:01;5.03;;;4.60;;
3280;SDS011;1652;51.318;6.202;2023-02-28T03:11:28;6.20;;;4.23;;
3280;SDS011;1652;51.318;6.202;2023-02-28T03:22:31;4.50;;;3.80;;
3280;SDS011;1652;51.318;6.202;2023-02-28T03:28:18;4.33;;;3.73;;
3280;SDS011;1652;51.318;6.202;2023-02-28T03:33:21;4.37;;;4.00;;
3280;SDS011;1652;51.318;6.202;2023-02-28T03:35:55;4.47;;;4.03;;
3280;SDS011;1652;51.318;6.202;2023-02-28T03:38:38;4.20;;;3.90;;
3280;SDS011;1652;51.318;6.202;2023-02-28T03:41:17;4.60;;;4.30;;
3280;SDS011;1652;51.318;6.202;2023-02-28T03:43:53;8.33;;;3.80;;
3280;SDS011;1652;51.318;6.202;2023-02-28T03:46:26;3.60;;;3.40;;
3280;SDS011;1652;51.318;6.202;2023-02-28T03:48:59;7.77;;;4.80;;
3280;SDS011;1652;51.318;6.202;2023-02-28T03:51:32;5.77;;;4.07;;
3280;SDS011;1652;51.318;6.202;2023-02-28T03:54:02;4.37;;;4.10;;
3280;SDS011;1652;51.318;6.202;2023-02-28T03:56:36;4.17;;;3.87;;
3280;SDS011;1652;51.318;6.202;2023-02-28T03:59:12;3.90;;;3.67;;
3280;SDS011;1652;51.318;6.202;2023-02-28T04:01:49;5.23;;;4.77;;
3280;SDS011;1652;51.318;6.202;2023-02-28T04:04:17;4.80;;;4.13;;
3280;SDS011;1652;51.318;6.202;2023-02-28T04:06:45;5.43;;;4.60;;
3280;SDS011;1652;51.318;6.202;2023-02-28T04:09:12;4.63;;;4.23;;
3280;SDS011;1652;51.318;6.202;2023-02-28T04:11:41;4.73;;;4.37;;
3280;SDS011;1652;51.318;6.202;2023-02-28T04:14:11;4.77;;;4.47;;
3280;SDS011;1652;51.318;6.202;2023-02-28T04:16:39;4.30;;;4.00;;
3280;SDS011;1652;51.318;6.202;2023-02-28T04:19:07;5.47;;;4.20;;
3280;SDS011;1652;51.318;6.202;2023-02-28T04:21:39;5.23;;;3.43;;
3280;SDS011;1652;51.318;6.202;2023-02-28T04:24:09;4.87;;;4.23;;
3280;SDS011;1652;51.318;6.202;2023-02-28T04:26:41;4.60;;;4.23;;
3280;SDS011;1652;51.318;6.202;2023-02-28T04:29:11;6.37;;;4.37;;
3280;SDS011;1652;51.318;6.202;2023-02-28T04:31:39;4.93;;;4.50;;
3280;SDS011;1652;51.318;6.202;2023-02-28T04:34:06;4.50;;;3.77;;
3280;SDS011;1652;51.318;6.202;2023-02-28T04:36:33;6.80;;;4.17;;
3280;SDS011;1652;51.318;6.202;2023-02-28T04:39:00;5.47;;;4.03;;
3280;SDS011;1652;51.318;6.202;2023-02-28T04:41:27;4.50;;;4.17;;
3280;SDS011;1652;51.318;6.202;2023-02-28T04:43:57;3.93;;;3.73;;
3280;SDS011;1652;51.318;6.202;2023-02-28T04:46:24;5.83;;;4.03;;
3280;SDS011;1652;51.318;6.202;2023-02-28T04:48:51;4.33;;;4.03;;
3280;SDS011;1652;51.318;6.202;2023-02-28T04:51:18;5.40;;;4.57;;
3280;SDS011;1652;51.318;6.202;2023-02-28T04:53:45;5.23;;;4.50;;
3280;SDS011;1652;51.318;6.202;2023-02-28T04:56:15;6.33;;;4.90;;
3280;SDS011;1652;51.318;6.202;2023-02-28T04:58:43;7.83;;;4.20;;
3280;SDS011;1652;51.318;6.202;2023-02-28T05:01:21;4.57;;;4.00;;
3280;SDS011;1652;51.318;6.202;2023-02-28T05:03:50;5.40;;;4.57;;
3280;SDS011;1652;51.318;6.202;2023-02-28T05:06:18;5.00;;;4.30;;
3280;SDS011;1652;51.318;6.202;2023-02-28T05:08:46;4.40;;;4.00;;
3280;SDS011;1652;51.318;6.202;2023-02-28T05:11:15;8.63;;;4.60;;
3280;SDS011;1652;51.318;6.202;2023-02-28T05:13:44;4.57;;;4.13;;
3280;SDS011;1652;51.318;6.202;2023-02-28T05:16:11;4.60;;;4.30;;
3280;SDS011;1652;51.318;6.202;2023-02-28T05:18:38;4.53;;;3.97;;
3280;SDS011;1652;51.318;6.202;2023-02-28T05:21:04;3.60;;;3.40;;
3280;SDS011;1652;51.318;6.202;2023-02-28T05:23:32;9.73;;;4.20;;
3280;SDS011;1652;51.318;6.202;2023-02-28T05:25:59;4.37;;;3.80;;
3280;SDS011;1652;51.318;6.202;2023-02-28T05:28:25;3.83;;;3.43;;
3280;SDS011;1652;51.318;6.202;2023-02-28T05:30:52;3.77;;;3.47;;
3280;SDS011;1652;51.318;6.202;2023-02-28T05:33:19;3.40;;;3.20;;
3280;SDS011;1652;51.318;6.202;2023-02-28T05:35:46;3.90;;;3.60;;
3280;SDS011;1652;51.318;6.202;2023-02-28T05:38:13;3.60;;;3.40;;
3280;SDS011;1652;51.318;6.202;2023-02-28T05:40:40;4.43;;;3.57;;
3280;SDS011;1652;51.318;6.202;2023-02-28T05:43:08;3.50;;;3.20;;
3280;SDS011;1652;51.318;6.202;2023-02-28T05:45:38;5.43;;;3.00;;
3280;SDS011;1652;51.318;6.202;2023-02-28T05:48:04;9.20;;;3.63;;
3280;SDS011;1652;51.318;6.202;2023-02-28T05:50:31;3.57;;;3.37;;
3280;SDS011;1652;51.318;6.202;2023-02-28T05:52:58;2.90;;;2.80;;
3280;SDS011;1652;51.318;6.202;2023-02-28T05:55:25;5.30;;;3.67;;
3280;SDS011;1652;51.318;6.202;2023-02-28T05:57:52;10.17;;;3.90;;
3280;SDS011;1652;51.318;6.202;2023-02-28T06:00:19;4.60;;;3.73;;
3280;SDS011;1652;51.318;6.202;2023-02-28T06:02:46;3.87;;;3.57;;
3280;SDS011;1652;51.318;6.202;2023-02-28T06:05:13;4.70;;;2.93;;
3280;SDS011;1652;51.318;6.202;2023-02-28T06:07:41;3.70;;;3.50;;
3280;SDS011;1652;51.318;6.202;2023-02-28T06:10:12;3.80;;;3.50;;
3280;SDS011;1652;51.318;6.202;2023-02-28T06:12:40;4.33;;;3.93;;
3280;SDS011;1652;51.318;6.202;2023-02-28T06:15:11;4.63;;;3.60;;
3280;SDS011;1652;51.318;6.202;2023-02-28T06:17:40;3.60;;;3.40;;
3280;SDS011;1652;51.318;6.202;2023-02-28T06:20:10;3.37;;;3.07;;
3280;SDS011;1652;51.318;6.202;2023-02-28T06:22:39;7.80;;;3.17;;
3280;SDS011;1652;51.318;6.202;2023-02-28T06:25:06;14.07;;;3.53;;
3280;SDS011;1652;51.318;6.202;2023-02-28T06:27:33;3.57;;;3.27;;
3280;SDS011;1652;51.318;6.202;2023-02-28T06:30:00;12.40;;;3.50;;
3280;SDS011;1652;51.318;6.202;2023-02-28T06:32:27;3.90;;;3.50;;
3280;SDS011;1652;51.318;6.202;2023-02-28T06:34:54;3.13;;;3.03;;
3280;SDS011;1652;51.318;6.202;2023-02-28T06:37:21;3.87;;;3.20;;
3280;SDS011;1652;51.318;6.202;2023-02-28T06:39:47;3.47;;;2.87;;
3280;SDS011;1652;51.318;6.202;2023-02-28T06:42:14;3.30;;;3.00;;
3280;SDS011;1652;51.318;6.202;2023-02-28T06:44:41;3.63;;;3.30;;
3280;SDS011;1652;51.318;6.202;2023-02-28T06:47:09;3.43;;;3.23;;
3280;SDS011;1652;51.318;6.202;2023-02-28T06:49:35;3.90;;;3.60;;
3280;SDS011;1652;51.318;6.202;2023-02-28T06:52:02;5.23;;;3.37;;
3280;SDS011;1652;51.318;6.202;2023-02-28T06:54:30;3.10;;;3.00;;
3280;SDS011;1652;51.318;6.202;2023-02-28T06:56:57;4.03;;;2.93;;
3280;SDS011;1652;51.318;6.202;2023-02-28T06:59:24;3.13;;;3.03;;
3280;SDS011;1652;51.318;6.202;2023-02-28T07:01:51;3.20;;;2.53;;
3280;SDS011;1652;51.318;6.202;2023-02-28T07:04:18;2.67;;;2.57;;
3280;SDS011;1652;51.318;6.202;2023-02-28T07:06:45;3.20;;;2.90;;
3280;SDS011;1652;51.318;6.202;2023-02-28T07:09:12;4.00;;;3.80;;
3280;SDS011;1652;51.318;6.202;2023-02-28T07:11:40;3.33;;;2.73;;
3280;SDS011;1652;51.318;6.202;2023-02-28T07:14:08;3.20;;;2.90;;
3280;SDS011;1652;51.318;6.202;2023-02-28T07:16:35;9.87;;;3.10;;
3280;SDS011;1652;51.318;6.202;2023-02-28T07:19:02;3.17;;;2.97;;
3280;SDS011;1652;51.318;6.202;2023-02-28T07:21:29;3.93;;;2.90;;
3280;SDS011;1652;51.318;6.202;2023-02-28T07:23:56;2.70;;;2.60;;
3280;SDS011;1652;51.318;6.202;2023-02-28T07:26:24;2.80;;;2.60;;
3280;SDS011;1652;51.318;6.202;2023-02-28T07:28:50;2.83;;;2.73;;
3280;SDS011;1652;51.318;6.202;2023-02-28T07:31:17;2.93;;;2.83;;
3280;SDS011;1652;51.318;6.202;2023-02-28T07:33:45;3.30;;;2.90;;
3280;SDS011;1652;51.318;6.202;2023-02-28T07:36:13;3.00;;;2.80;;
3280;SDS011;1652;51.318;6.202;2023-02-28T07:38:45;3.47;;;3.27;;
3280;SDS011;1652;51.318;6.202;2023-02-28T07:41:18;3.30;;;3.10;;
3280;SDS011;1652;51.318;6.202;2023-02-28T07:43:46;3.90;;;2.70;;
3280;SDS011;1652;51.318;6.202;2023-02-28T07:46:14;3.10;;;2.83;;
3280;SDS011;1652;51.318;6.202;2023-02-28T07:48:42;3.47;;;3.27;;
3280;SDS011;1652;51.318;6.202;2023-02-28T07:51:10;4.00;;;3.07;;
3280;SDS011;1652;51.318;6.202;2023-02-28T07:53:36;4.00;;;2.93;;
3280;SDS011;1652;51.318;6.202;2023-02-28T07:56:03;3.13;;;2.87;;
3280;SDS011;1652;51.318;6.202;2023-02-28T07:58:30;3.03;;;2.93;;
3280;SDS011;1652;51.318;6.202;2023-02-28T08:01:04;3.67;;;3.40;;
3280;SDS011;1652;51.318;6.202;2023-02-28T08:03:34;4.67;;;2.93;;
3280;SDS011;1652;51.318;6.202;2023-02-28T08:06:02;3.07;;;2.40;;
3280;SDS011;1652;51.318;6.202;2023-02-28T08:08:30;3.17;;;2.67;;
3280;SDS011;1652;51.318;6.202;2023-02-28T08:10:58;2.60;;;2.50;;
3280;SDS011;1652;51.318;6.202;2023-02-28T08:13:29;3.23;;;2.77;;
3280;SDS011;1652;51.318;6.202;2023-02-28T08:15:56;2.70;;;2.50;;
3280;SDS011;1652;51.318;6.202;2023-02-28T08:18:23;2.53;;;2.43;;
3280;SDS011;1652;51.318;6.202;2023-02-28T08:20:50;5.00;;;3.03;;
3280;SDS011;1652;51.318;6.202;2023-02-28T08:23:17;3.63;;;2.80;;
3280;SDS011;1652;51.318;6.202;2023-02-28T08:25:44;5.07;;;2.93;;
3280;SDS011;1652;51.318;6.202;2023-02-28T08:28:18;3.80;;;3.00;;
3280;SDS011;1652;51.318;6.202;2023-02-28T08:30:45;5.30;;;2.50;;
3280;SDS011;1652;51.318;6.202;2023-02-28T08:33:11;2.60;;;2.50;;
3280;SDS011;1652;51.318;6.202;2023-02-28T08:35:38;2.40;;;2.20;;
3280;SDS011;1652;51.318;6.202;2023-02-28T08:38:05;2.57;;;2.40;;
3280;SDS011;1652;51.318;6.202;2023-02-28T08:40:32;2.30;;;2.20;;
3280;SDS011;1652;51.318;6.202;2023-02-28T08:42:58;2.23;;;2.13;;
3280;SDS011;1652;51.318;6.202;2023-02-28T08:45:25;2.90;;;2.33;;
3280;SDS011;1652;51.318;6.202;2023-02-28T08:47:54;3.47;;;2.70;;
3280;SDS011;1652;51.318;6.202;2023-02-28T08:50:21;2.10;;;2.00;;
3280;SDS011;1652;51.318;6.202;2023-02-28T08:52:48;2.63;;;2.43;;
3280;SDS011;1652;51.318;6.202;2023-02-28T08:55:15;5.80;;;2.33;;
3280;SDS011;1652;51.318;6.202;2023-02-28T08:57:42;2.60;;;2.50;;
3280;SDS011;1652;51.318;6.202;2023-02-28T09:00:09;2.10;;;2.00;;
3280;SDS011;1652;51.318;6.202;2023-02-28T09:02:39;2.07;;;1.93;;
3280;SDS011;1652;51.318;6.202;2023-02-28T09:05:06;1.83;;;1.73;;
3280;SDS011;1652;51.318;6.202;2023-02-28T09:07:34;2.43;;;2.30;;
3280;SDS011;1652;51.318;6.202;2023-02-28T09:10:01;1.90;;;1.80;;
3280;SDS011;1652;51.318;6.202;2023-02-28T09:12:28;2.37;;;2.27;;
3280;SDS011;1652;51.318;6.202;2023-02-28T09:15:01;1.37;;;1.07;;
3280;SDS011;1652;51.318;6.202;2023-02-28T09:17:29;2.60;;;1.63;;
3280;SDS011;1652;51.318;6.202;2023-02-28T09:19:56;1.90;;;1.80;;
3280;SDS011;1652;51.318;6.202;2023-02-28T09:22:24;1.70;;;1.60;;
3280;SDS011;1652;51.318;6.202;2023-02-28T09:24:51;4.10;;;1.67;;
3280;SDS011;1652;51.318;6.202;2023-02-28T09:29:48;1.60;;;1.50;;
3280;SDS011;1652;51.318;6.202;2023-02-28T09:32:15;7.70;;;1.87;;
3280;SDS011;1652;51.318;6.202;2023-02-28T09:34:44;1.60;;;1.50;;
3280;SDS011;1652;51.318;6.202;2023-02-28T09:37:11;2.30;;;2.07;;
3280;SDS011;1652;51.318;6.202;2023-02-28T09:39:37;1.83;;;1.73;;
3280;SDS011;1652;51.318;6.202;2023-02-28T09:42:04;1.70;;;1.60;;
3280;SDS011;1652;51.318;6.202;2023-02-28T09:44:51;1.47;;;1.37;;
3280;SDS011;1652;51.318;6.202;2023-02-28T09:47:25;1.17;;;1.10;;
3280;SDS011;1652;51.318;6.202;2023-02-28T09:49:53;2.23;;;1.67;;
3280;SDS011;1652;51.318;6.202;2023-02-28T09:52:26;2.03;;;1.83;;
3280;SDS011;1652;51.318;6.202;2023-02-28T09:54:59;1.00;;;1.00;;
3280;SDS011;1652;51.318;6.202;2023-02-28T09:57:45;1.40;;;1.30;;
3280;SDS011;1652;51.318;6.202;2023-02-28T10:05:40;1.10;;;1.10;;
3280;SDS011;1652;51.318;6.202;2023-02-28T10:08:23;1.00;;;1.00;;
3280;SDS011;1652;51.318;6.202;2023-02-28T10:10:54;1.20;;;1.20;;
3280;SDS011;1652;51.318;6.202;2023-02-28T10:13:26;0.87;;;0.87;;
3280;SDS011;1652;51.318;6.202;2023-02-28T10:16:33;1.50;;;1.40;;
3280;SDS011;1652;51.318;6.202;2023-02-28T10:21:38;1.37;;;1.03;;
3280;SDS011;1652;51.318;6.202;2023-02-28T10:26:47;1.30;;;1.20;;
3280;SDS011;1652;51.318;6.202;2023-02-28T10:29:14;1.80;;;0.80;;
3280;SDS011;1652;51.318;6.202;2023-02-28T10:31:41;1.20;;;1.10;;
3280;SDS011;1652;51.318;6.202;2023-02-28T10:34:10;1.23;;;1.13;;
3280;SDS011;1652;51.318;6.202;2023-02-28T10:36:38;1.40;;;1.30;;
3280;SDS011;1652;51.318;6.202;2023-02-28T10:39:51;1.03;;;1.03;;
3280;SDS011;1652;51.318;6.202;2023-02-28T10:42:05;1.37;;;1.27;;
3280;SDS011;1652;51.318;6.202;2023-02-28T10:51:21;0.60;;;0.60;;
3280;SDS011;1652;51.318;6.202;2023-02-28T10:58:51;1.13;;;1.03;;
3280;SDS011;1652;51.318;6.202;2023-02-28T11:01:35;1.40;;;1.30;;
3280;SDS011;1652;51.318;6.202;2023-02-28T11:06:59;1.50;;;1.40;;
3280;SDS011;1652;51.318;6.202;2023-02-28T11:12:02;3.90;;;1.33;;
3280;SDS011;1652;51.318;6.202;2023-02-28T11:14:35;1.07;;;1.07;;
3280;SDS011;1652;51.318;6.202;2023-02-28T11:17:18;1.23;;;1.13;;
3280;SDS011;1652;51.318;6.202;2023-02-28T11:19:51;0.90;;;0.90;;
3280;SDS011;1652;51.318;6.202;2023-02-28T11:22:21;1.10;;;1.00;;
3280;SDS011;1652;51.318;6.202;2023-02-28T11:24:59;2.10;;;0.93;;
3280;SDS011;1652;51.318;6.202;2023-02-28T11:29:58;0.80;;;0.80;;
3280;SDS011;1652;51.318;6.202;2023-02-28T11:32:26;1.67;;;1.57;;
3280;SDS011;1652;51.318;6.202;2023-02-28T11:37:37;1.43;;;1.33;;
3280;SDS011;1652;51.318;6.202;2023-02-28T11:40:09;1.93;;;1.50;;
3280;SDS011;1652;51.318;6.202;2023-02-28T11:48:14;3.53;;;1.60;;
3280;SDS011;1652;51.318;6.202;2023-02-28T11:50:52;1.40;;;1.30;;
3280;SDS011;1652;51.318;6.202;2023-02-28T11:56:36;1.77;;;1.67;;
3280;SDS011;1652;51.318;6.202;2023-02-28T12:02:06;3.40;;;1.30;;
3280;SDS011;1652;51.318;6.202;2023-02-28T12:07:52;0.90;;;0.90;;
3280;SDS011;1652;51.318;6.202;2023-02-28T12:13:41;6.30;;;1.67;;
3280;SDS011;1652;51.318;6.202;2023-02-28T12:16:39;5.33;;;1.47;;
3280;SDS011;1652;51.318;6.202;2023-02-28T12:19:17;1.60;;;1.50;;
3280;SDS011;1652;51.318;6.202;2023-02-28T12:27:41;1.47;;;1.37;;
3280;SDS011;1652;51.318;6.202;2023-02-28T12:30:16;1.27;;;1.17;;
3280;SDS011;1652;51.318;6.202;2023-02-28T12:38:17;2.80;;;1.40;;
3280;SDS011;1652;51.318;6.202;2023-02-28T12:40:55;1.73;;;1.63;;
3280;SDS011;1652;51.318;6.202;2023-02-28T12:43:29;1.27;;;1.17;;
3280;SDS011;1652;51.318;6.202;2023-02-28T12:46:10;1.50;;;1.40;;
3280;SDS011;1652;51.318;6.202;2023-02-28T12:48:43;1.13;;;1.00;;
3280;SDS011;1652;51.318;6.202;2023-02-28T12:51:13;1.73;;;1.63;;
3280;SDS011;1652;51.318;6.202;2023-02-28T12:53:49;1.40;;;1.30;;
3280;SDS011;1652;51.318;6.202;2023-02-28T12:56:31;1.90;;;1.80;;
3280;SDS011;1652;51.318;6.202;2023-02-28T12:59:01;9.23;;;1.80;;
3280;SDS011;1652;51.318;6.202;2023-02-28T13:01:47;1.70;;;1.60;;
3280;SDS011;1652;51.318;6.202;2023-02-28T13:04:43;1.50;;;1.40;;
3280;SDS011;1652;51.318;6.202;2023-02-28T13:10:07;1.90;;;1.80;;
3280;SDS011;1652;51.318;6.202;2023-02-28T13:12:35;2.00;;;1.90;;
3280;SDS011;1652;51.318;6.202;2023-02-28T13:17:56;2.23;;;2.00;;
3280;SDS011;1652;51.318;6.202;2023-02-28T13:20:26;13.33;;;7.33;;
3280;SDS011;1652;51.318;6.202;2023-02-28T13:22:55;1.83;;;1.73;;
3280;SDS011;1652;51.318;6.202;2023-02-28T13:28:07;5.80;;;1.97;;
3280;SDS011;1652;51.318;6.202;2023-02-28T13:33:28;3.30;;;1.60;;
3280;SDS011;1652;51.318;6.202;2023-02-28T13:38:44;2.10;;;1.90;;
3280;SDS011;1652;51.318;6.202;2023-02-28T13:44:06;1.47;;;1.37;;
3280;SDS011;1652;51.318;6.202;2023-02-28T13:46:34;2.80;;;1.97;;
3280;SDS011;1652;51.318;6.202;2023-02-28T13:49:33;2.17;;;2.07;;
3280;SDS011;1652;51.318;6.202;2023-02-28T14:05:54;5.17;;;1.67;;
3280;SDS011;1652;51.318;6.202;2023-02-28T14:11:28;2.47;;;2.30;;
3280;SDS011;1652;51.318;6.202;2023-02-28T14:14:00;1.90;;;1.80;;
3280;SDS011;1652;51.318;6.202;2023-02-28T14:19:15;1.60;;;1.50;;
3280;SDS011;1652;51.318;6.202;2023-02-28T14:24:42;4.10;;;2.37;;
3280;SDS011;1652;51.318;6.202;2023-02-28T14:41:15;2.23;;;2.13;;
3280;SDS011;1652;51.318;6.202;2023-02-28T14:44:13;2.00;;;1.90;;
3280;SDS011;1652;51.318;6.202;2023-02-28T14:46:47;1.87;;;1.77;;
3280;SDS011;1652;51.318;6.202;2023-02-28T14:49:28;2.17;;;2.07;;
3280;SDS011;1652;51.318;6.202;2023-02-28T14:54:40;2.20;;;2.10;;
3280;SDS011;1652;51.318;6.202;2023-02-28T14:57:20;1.80;;;1.70;;
3280;SDS011;1652;51.318;6.202;2023-02-28T14:59:59;2.47;;;2.10;;
3280;SDS011;1652;51.318;6.202;2023-02-28T15:02:31;3.37;;;2.37;;
3280;SDS011;1652;51.318;6.202;2023-02-28T15:05:10;2.93;;;2.67;;
3280;SDS011;1652;51.318;6.202;2023-02-28T15:08:01;2.00;;;1.90;;
3280;SDS011;1652;51.318;6.202;2023-02-28T15:10:32;2.30;;;2.20;;
3280;SDS011;1652;51.318;6.202;2023-02-28T15:13:01;2.50;;;2.40;;
3280;SDS011;1652;51.318;6.202;2023-02-28T15:15:39;2.80;;;2.60;;
3280;SDS011;1652;51.318;6.202;2023-02-28T15:21:12;2.53;;;2.43;;
3280;SDS011;1652;51.318;6.202;2023-02-28T15:26:58;2.70;;;2.60;;
3280;SDS011;1652;51.318;6.202;2023-02-28T15:29:29;2.53;;;2.43;;
3280;SDS011;1652;51.318;6.202;2023-02-28T15:32:01;2.43;;;2.30;;
3280;SDS011;1652;51.318;6.202;2023-02-28T15:34:39;4.73;;;2.57;;
3280;SDS011;1652;51.318;6.202;2023-02-28T15:40:11;2.80;;;2.70;;
3280;SDS011;1652;51.318;6.202;2023-02-28T15:42:42;2.90;;;2.70;;
3280;SDS011;1652;51.318;6.202;2023-02-28T15:45:44;4.83;;;3.20;;
3280;SDS011;1652;51.318;6.202;2023-02-28T15:48:22;2.93;;;2.73;;
3280;SDS011;1652;51.318;6.202;2023-02-28T15:51:07;6.77;;;2.40;;
3280;SDS011;1652;51.318;6.202;2023-02-28T15:53:37;3.70;;;3.50;;
3280;SDS011;1652;51.318;6.202;2023-02-28T15:56:22;4.60;;;2.80;;
3280;SDS011;1652;51.318;6.202;2023-02-28T15:58:57;3.00;;;2.80;;
3280;SDS011;1652;51.318;6.202;2023-02-28T16:01:32;3.70;;;3.40;;
3280;SDS011;1652;51.318;6.202;2023-02-28T16:04:05;2.30;;;2.20;;
3280;SDS011;1652;51.318;6.202;2023-02-28T16:06:39;3.47;;;2.67;;
3280;SDS011;1652;51.318;6.202;2023-02-28T16:09:14;2.90;;;2.47;;
3280;SDS011;1652;51.318;6.202;2023-02-28T16:11:46;4.40;;;2.77;;
3280;SDS011;1652;51.318;6.202;2023-02-28T16:14:18;2.17;;;2.07;;
3280;SDS011;1652;51.318;6.202;2023-02-28T16:16:54;3.23;;;3.03;;
3280;SDS011;1652;51.318;6.202;2023-02-28T16:19:22;3.87;;;2.80;;
3280;SDS011;1652;51.318;6.202;2023-02-28T16:21:50;3.63;;;2.80;;
3280;SDS011;1652;51.318;6.202;2023-02-28T16:24:17;2.73;;;2.63;;
3280;SDS011;1652;51.318;6.202;2023-02-28T16:26:47;2.97;;;2.87;;
3280;SDS011;1652;51.318;6.202;2023-02-28T16:29:19;5.63;;;2.63;;
3280;SDS011;1652;51.318;6.202;2023-02-28T16:31:51;2.70;;;2.60;;
3280;SDS011;1652;51.318;6.202;2023-02-28T16:34:19;2.60;;;2.50;;
3280;SDS011;1652;51.318;6.202;2023-02-28T16:36:49;3.47;;;3.10;;
3280;SDS011;1652;51.318;6.202;2023-02-28T16:39:19;5.10;;;3.70;;
3280;SDS011;1652;51.318;6.202;2023-02-28T16:41:47;2.83;;;2.70;;
3280;SDS011;1652;51.318;6.202;2023-02-28T16:44:26;6.10;;;3.10;;
3280;SDS011;1652;51.318;6.202;2023-02-28T16:46:55;3.30;;;3.10;;
3280;SDS011;1652;51.318;6.202;2023-02-28T16:49:23;4.30;;;2.67;;
3280;SDS011;1652;51.318;6.202;2023-02-28T16:51:50;5.13;;;3.40;;
3280;SDS011;1652;51.318;6.202;2023-02-28T16:54:17;2.40;;;2.30;;
3280;SDS011;1652;51.318;6.202;2023-02-28T16:56:44;3.07;;;2.97;;
3280;SDS011;1652;51.318;6.202;2023-02-28T16:59:13;3.10;;;2.77;;
3280;SDS011;1652;51.318;6.202;2023-02-28T17:01:44;3.50;;;3.37;;
3280;SDS011;1652;51.318;6.202;2023-02-28T17:04:11;4.63;;;3.57;;
3280;SDS011;1652;51.318;6.202;2023-02-28T17:06:38;5.53;;;5.23;;
3280;SDS011;1652;51.318;6.202;2023-02-28T17:09:09;3.73;;;3.47;;
3280;SDS011;1652;51.318;6.202;2023-02-28T17:11:47;2.90;;;2.80;;
3280;SDS011;1652;51.318;6.202;2023-02-28T17:14:14;2.50;;;2.30;;
3280;SDS011;1652;51.318;6.202;2023-02-28T17:16:42;2.97;;;2.70;;
3280;SDS011;1652;51.318;6.202;2023-02-28T17:19:11;2.47;;;2.37;;
3280;SDS011;1652;51.318;6.202;2023-02-28T17:21:40;3.07;;;2.93;;
3280;SDS011;1652;51.318;6.202;2023-02-28T17:24:08;3.43;;;3.23;;
3280;SDS011;1652;51.318;6.202;2023-02-28T17:26:44;3.03;;;2.83;;
3280;SDS011;1652;51.318;6.202;2023-02-28T17:29:18;5.43;;;3.03;;
3280;SDS011;1652;51.318;6.202;2023-02-28T17:31:47;2.70;;;2.60;;
3280;SDS011;1652;51.318;6.202;2023-02-28T17:34:15;3.87;;;3.57;;
3280;SDS011;1652;51.318;6.202;2023-02-28T17:36:46;6.07;;;4.60;;
3280;SDS011;1652;51.318;6.202;2023-02-28T17:39:15;2.77;;;2.67;;
3280;SDS011;1652;51.318;6.202;2023-02-28T17:41:50;3.40;;;2.97;;
3280;SDS011;1652;51.318;6.202;2023-02-28T17:44:18;3.50;;;3.30;;
3280;SDS011;1652;51.318;6.202;2023-02-28T17:46:45;2.93;;;2.83;;
3280;SDS011;1652;51.318;6.202;2023-02-28T17:49:12;3.50;;;3.30;;
3280;SDS011;1652;51.318;6.202;2023-02-28T17:52:00;8.13;;;5.27;;
3280;SDS011;1652;51.318;6.202;2023-02-28T17:54:27;7.00;;;4.90;;
3280;SDS011;1652;51.318;6.202;2023-02-28T17:56:54;8.77;;;3.73;;
3280;SDS011;1652;51.318;6.202;2023-02-28T17:59:21;3.93;;;3.63;;
3280;SDS011;1652;51.318;6.202;2023-02-28T18:01:47;4.33;;;2.80;;
3280;SDS011;1652;51.318;6.202;2023-02-28T18:04:14;3.10;;;3.00;;
3280;SDS011;1652;51.318;6.202;2023-02-28T18:06:41;2.90;;;2.77;;
3280;SDS011;1652;51.318;6.202;2023-02-28T18:09:14;8.77;;;4.90;;
3280;SDS011;1652;51.318;6.202;2023-02-28T18:11:43;3.77;;;3.47;;
3280;SDS011;1652;51.318;6.202;2023-02-28T18:14:14;3.20;;;3.00;;
3280;SDS011;1652;51.318;6.202;2023-02-28T18:16:42;2.80;;;2.70;;
3280;SDS011;1652;51.318;6.202;2023-02-28T18:19:10;3.07;;;2.97;;
3280;SDS011;1652;51.318;6.202;2023-02-28T18:21:49;3.57;;;3.40;;
3280;SDS011;1652;51.318;6.202;2023-02-28T18:24:18;4.03;;;3.80;;
3280;SDS011;1652;51.318;6.202;2023-02-28T18:26:46;2.83;;;2.63;;
3280;SDS011;1652;51.318;6.202;2023-02-28T18:29:17;3.20;;;2.90;;
3280;SDS011;1652;51.318;6.202;2023-02-28T18:31:47;3.07;;;2.97;;